Aviation Digital Data Service (ADDS)

Output produced by METARs form (0451 UTC 28 July 2016)
found at http://aviationweather.gov/adds/metars/
 
KPVD 272320Z 2800/2824 20007KT P6SM FEW150 
     FM281800 19010KT P6SM BKN200